Time;durP1;ratioP1;P1;durP2;ratioP2;P2;SDS_P1;SDS_P2;PMS_P1;PMS_P2;Temp;Humidity;BMP_temperature;BMP_pressure;BME280_temperature;BME280_humidity;BME280_pressure;Samples;Min_cycle;Max_cycle;Signal;HPM_P1;HPM_P2
2022/01/31 00:00:17;;;;;;;5.80;3.70;;;;;;99283.38;;;;106615;1284;65510;-44
2022/01/31 00:03:04;;;;;;;7.90;3.60;;;;;;99282.55;;;;106587;1283;64763;-30
2022/01/31 00:05:35;;;;;;;6.40;3.40;;;;;;99289.55;;;;106614;1284;64817;-31
2022/01/31 00:08:02;;;;;;;6.20;3.30;;;;;;99292.87;;;;106498;1284;65269;-43
2022/01/31 00:10:31;;;;;;;6.20;3.20;;;;;;99293.47;;;;106583;1284;64752;-44
2022/01/31 00:13:17;;;;;;;5.60;3.30;;;;;;99292.34;;;;106604;1284;65057;-31
2022/01/31 00:15:52;;;;;;;5.60;3.30;;;;;;99296.89;;;;106580;1284;64637;-31
2022/01/31 00:18:20;;;;;;;5.50;3.20;;;;;;99293.80;;;;106574;1284;64904;-31
2022/01/31 00:20:47;;;;;;;6.30;3.20;;;;;;99288.62;;;;106509;1284;66153;-31
2022/01/31 00:23:15;;;;;;;7.30;3.40;;;;;;99295.21;;;;106499;1283;65304;-43
2022/01/31 00:25:42;;;;;;;5.50;3.00;;;;;;99291.62;;;;106545;1284;64757;-44
2022/01/31 00:28:09;;;;;;;5.60;3.20;;;;;;99295.55;;;;106570;1284;64955;-31
2022/01/31 00:30:36;;;;;;;6.10;3.50;;;;;;99298.59;;;;106572;1283;64871;-31
2022/01/31 00:33:03;;;;;;;6.50;3.20;;;;;;99295.27;;;;106602;1284;65324;-42
2022/01/31 00:35:31;;;;;;;5.70;3.10;;;;;;99292.22;;;;106571;1282;64860;-43
2022/01/31 00:37:59;;;;;;;6.00;3.00;;;;;;99290.66;;;;106564;1283;64865;-31
2022/01/31 00:40:26;;;;;;;6.10;3.20;;;;;;99288.75;;;;106567;1284;64763;-32
2022/01/31 00:42:53;;;;;;;5.70;2.90;;;;;;99297.06;;;;106550;1284;64836;-32
2022/01/31 00:45:26;;;;;;;7.00;2.90;;;;;;99298.07;;;;106582;1284;66022;-32
2022/01/31 00:48:01;;;;;;;6.00;2.70;;;;;;99293.91;;;;106590;1284;64795;-46
2022/01/31 00:50:39;;;;;;;6.60;2.80;;;;;;99299.63;;;;106585;1283;64762;-42
2022/01/31 00:53:07;;;;;;;5.30;2.40;;;;;;99302.23;;;;106563;1284;65034;-30
2022/01/31 00:55:34;;;;;;;6.20;2.60;;;;;;99309.98;;;;106497;1284;64890;-31
2022/01/31 00:58:02;;;;;;;6.90;2.50;;;;;;99314.34;;;;106552;1284;65195;-45
2022/01/31 01:00:29;;;;;;;7.10;2.70;;;;;;99312.27;;;;106561;1284;64912;-46
2022/01/31 01:02:56;;;;;;;5.30;2.90;;;;;;99312.13;;;;103937;1284;3456016;-41
2022/01/31 01:05:23;;;;;;;6.50;2.60;;;;;;99314.84;;;;106329;1283;64888;-48
2022/01/31 01:07:51;;;;;;;4.40;2.30;;;;;;99324.96;;;;106542;1284;64775;-43
2022/01/31 01:10:19;;;;;;;5.00;2.50;;;;;;99332.20;;;;106579;1283;64767;-42
2022/01/31 01:12:49;;;;;;;6.20;2.70;;;;;;99327.77;;;;106579;1284;64862;-31
2022/01/31 01:15:17;;;;;;;6.40;2.30;;;;;;99335.41;;;;106521;1284;64780;-38
2022/01/31 01:17:47;;;;;;;3.90;2.00;;;;;;99334.79;;;;106562;1284;64840;-32
2022/01/31 01:20:15;;;;;;;4.70;2.10;;;;;;99339.35;;;;106582;1284;64862;-31
2022/01/31 01:22:44;;;;;;;4.90;2.10;;;;;;99347.48;;;;106602;1284;67342;-31
2022/01/31 01:25:13;;;;;;;5.10;2.00;;;;;;99352.13;;;;106589;1283;65221;-31
2022/01/31 01:27:42;;;;;;;5.60;2.10;;;;;;99357.24;;;;106506;1284;64867;-31
2022/01/31 01:30:13;;;;;;;4.00;1.70;;;;;;99359.19;;;;106548;1284;64779;-31
2022/01/31 01:32:50;;;;;;;4.50;1.80;;;;;;99354.16;;;;106572;1284;64791;-38
2022/01/31 01:35:17;;;;;;;3.80;1.90;;;;;;99358.81;;;;106553;1284;66183;-31
2022/01/31 01:37:44;;;;;;;4.10;1.90;;;;;;99366.13;;;;106537;1284;64763;-43
2022/01/31 01:40:11;;;;;;;5.00;1.90;;;;;;99354.02;;;;106560;1284;64749;-43
2022/01/31 01:42:41;;;;;;;4.50;2.10;;;;;;99366.62;;;;106562;1284;64977;-43
2022/01/31 01:45:12;;;;;;;5.00;1.80;;;;;;99361.92;;;;106586;1283;64878;-43
2022/01/31 01:47:39;;;;;;;4.90;1.90;;;;;;99372.21;;;;106623;1284;67490;-45
2022/01/31 01:50:09;;;;;;;4.30;1.80;;;;;;99364.50;;;;106537;1283;64910;-43
2022/01/31 01:52:36;;;;;;;4.70;1.80;;;;;;99363.52;;;;106553;1284;64901;-43
2022/01/31 01:55:06;;;;;;;4.60;1.70;;;;;;99370.52;;;;106520;1284;64788;-43
2022/01/31 01:57:34;;;;;;;4.30;1.80;;;;;;99367.75;;;;106559;1284;62231;-42
2022/01/31 02:00:01;;;;;;;3.20;1.60;;;;;;99360.98;;;;106530;1284;65027;-42
2022/01/31 02:02:28;;;;;;;4.50;1.80;;;;;;99366.04;;;;106541;1282;64754;-43
2022/01/31 02:04:58;;;;;;;3.10;1.60;;;;;;99361.45;;;;106574;1284;64824;-43
2022/01/31 02:07:26;;;;;;;3.40;1.60;;;;;;99358.11;;;;106565;1284;64787;-32
2022/01/31 02:09:56;;;;;;;5.20;1.90;;;;;;99355.82;;;;106610;1284;64895;-32
2022/01/31 02:12:24;;;;;;;4.00;1.70;;;;;;99351.01;;;;106587;1284;66004;-30
2022/01/31 02:14:58;;;;;;;4.30;1.70;;;;;;99349.21;;;;106544;1284;64999;-30
2022/01/31 02:17:25;;;;;;;3.50;1.40;;;;;;99351.67;;;;106568;1283;64615;-30
2022/01/31 02:19:55;;;;;;;4.10;1.70;;;;;;99353.33;;;;106550;1284;64897;-30
2022/01/31 02:22:23;;;;;;;3.60;1.50;;;;;;99350.72;;;;106531;1284;63460;-41
2022/01/31 02:24:50;;;;;;;4.40;1.50;;;;;;99350.66;;;;106501;1284;65231;-43
2022/01/31 02:27:32;;;;;;;3.20;1.20;;;;;;99350.81;;;;106528;1284;64938;-30
2022/01/31 02:30:24;;;;;;;4.10;1.70;;;;;;99348.25;;;;106576;1284;64756;-30
2022/01/31 02:32:52;;;;;;;4.80;1.50;;;;;;99352.20;;;;106466;1284;64856;-30
2022/01/31 02:35:19;;;;;;;3.40;1.50;;;;;;99350.81;;;;106570;1284;64820;-31
2022/01/31 02:37:46;;;;;;;3.80;1.50;;;;;;99351.14;;;;106582;1284;65881;-43
2022/01/31 02:40:13;;;;;;;3.50;1.40;;;;;;99347.86;;;;106568;1284;64818;-43
2022/01/31 02:42:40;;;;;;;4.60;1.50;;;;;;99344.63;;;;106560;1284;64879;-43
2022/01/31 02:45:08;;;;;;;3.60;1.50;;;;;;99342.18;;;;106544;1284;64898;-43
2022/01/31 02:47:39;;;;;;;3.60;1.50;;;;;;99337.04;;;;106541;1284;64974;-43
2022/01/31 02:50:12;;;;;;;3.30;1.50;;;;;;99333.11;;;;106567;1284;66572;-42
2022/01/31 02:52:46;;;;;;;4.10;1.30;;;;;;99346.31;;;;106557;1284;64758;-43
2022/01/31 02:55:17;;;;;;;2.70;1.10;;;;;;99334.40;;;;106554;1284;64770;-43
2022/01/31 02:57:44;;;;;;;4.50;1.50;;;;;;99330.83;;;;106568;1282;64983;-43
2022/01/31 03:00:15;;;;;;;4.60;1.70;;;;;;99325.54;;;;106577;1283;64772;-42
2022/01/31 03:02:42;;;;;;;2.90;1.20;;;;;;99327.00;;;;106518;1284;64856;-31
2022/01/31 03:05:09;;;;;;;3.00;1.20;;;;;;99328.98;;;;106552;1284;64785;-30
2022/01/31 03:07:36;;;;;;;5.00;1.40;;;;;;99328.21;;;;106551;1284;64782;-30
2022/01/31 03:10:04;;;;;;;3.70;1.50;;;;;;99343.18;;;;106534;1284;64955;-30
2022/01/31 03:12:31;;;;;;;3.40;1.50;;;;;;99335.92;;;;106627;1284;64798;-43
2022/01/31 03:15:02;;;;;;;3.10;1.30;;;;;;99332.34;;;;106564;1284;65792;-42
2022/01/31 03:17:29;;;;;;;3.80;1.30;;;;;;99325.02;;;;106600;1284;64833;-42
2022/01/31 03:19:57;;;;;;;3.10;1.20;;;;;;99328.02;;;;106565;1284;65455;-43
2022/01/31 03:22:25;;;;;;;3.90;1.40;;;;;;99323.11;;;;106556;1284;64756;-43
2022/01/31 03:24:52;;;;;;;4.20;1.60;;;;;;99325.11;;;;106579;1284;64984;-43
2022/01/31 03:27:19;;;;;;;2.80;1.10;;;;;;99327.20;;;;106577;1284;65229;-31
2022/01/31 03:29:49;;;;;;;3.10;1.50;;;;;;99332.96;;;;106552;1284;65462;-30
2022/01/31 03:32:17;;;;;;;3.20;1.50;;;;;;99331.86;;;;106597;1284;64627;-44
2022/01/31 03:34:44;;;;;;;3.70;1.50;;;;;;99340.27;;;;106547;1283;64753;-41
2022/01/31 03:37:11;;;;;;;4.10;1.50;;;;;;99338.16;;;;106503;1284;64900;-41
2022/01/31 03:39:38;;;;;;;3.30;1.30;;;;;;99342.61;;;;106456;1284;66316;-41
2022/01/31 03:42:06;;;;;;;3.80;1.40;;;;;;99344.63;;;;106451;1284;64871;-31
2022/01/31 03:44:34;;;;;;;3.60;1.50;;;;;;99331.62;;;;106503;1284;64904;-30
2022/01/31 03:47:05;;;;;;;4.20;1.40;;;;;;99327.77;;;;106491;1284;65032;-43
2022/01/31 03:49:32;;;;;;;3.50;1.40;;;;;;99332.40;;;;106530;1284;64759;-43
2022/01/31 03:52:03;;;;;;;3.80;1.60;;;;;;99343.98;;;;106520;1284;66243;-31
2022/01/31 03:54:30;;;;;;;4.10;1.40;;;;;;99348.77;;;;106293;1284;66313;-31
2022/01/31 03:56:57;;;;;;;3.10;1.20;;;;;;99343.04;;;;106522;1284;64805;-32
2022/01/31 03:59:25;;;;;;;3.30;1.20;;;;;;99338.03;;;;106468;1284;64763;-32
2022/01/31 04:01:55;;;;;;;4.10;1.50;;;;;;99333.42;;;;106476;1284;64899;-43
2022/01/31 04:04:23;;;;;;;3.80;1.50;;;;;;99333.76;;;;106496;1284;67410;-43
2022/01/31 04:06:50;;;;;;;5.00;1.30;;;;;;99337.46;;;;106508;1284;64731;-43
2022/01/31 04:09:17;;;;;;;3.10;1.20;;;;;;99337.09;;;;106453;1284;64881;-43
2022/01/31 04:11:45;;;;;;;3.50;1.40;;;;;;99333.80;;;;106443;1284;64889;-30
2022/01/31 04:14:13;;;;;;;3.80;1.40;;;;;;99324.06;;;;106485;1284;64757;-31
2022/01/31 04:16:40;;;;;;;3.40;1.20;;;;;;99323.33;;;;106520;1284;66521;-31
2022/01/31 04:19:10;;;;;;;4.90;1.40;;;;;;99328.02;;;;106500;1284;64885;-30
2022/01/31 04:21:37;;;;;;;3.70;1.50;;;;;;99336.77;;;;106484;1284;64757;-30
2022/01/31 04:24:06;;;;;;;4.50;1.40;;;;;;99334.09;;;;106482;1284;64768;-30
2022/01/31 04:26:34;;;;;;;5.10;1.60;;;;;;99337.55;;;;106529;1284;64789;-43
2022/01/31 04:29:07;;;;;;;3.80;1.30;;;;;;99335.95;;;;106516;1284;65956;-44
2022/01/31 04:31:40;;;;;;;3.50;1.20;;;;;;99331.45;;;;106479;1284;64856;-43
2022/01/31 04:34:11;;;;;;;4.20;1.40;;;;;;99325.30;;;;106521;1284;64855;-43
2022/01/31 04:36:38;;;;;;;4.50;1.30;;;;;;99322.78;;;;106487;1284;64769;-30
2022/01/31 04:39:15;;;;;;;4.40;1.70;;;;;;99322.11;;;;106489;1284;64915;-31
2022/01/31 04:41:44;;;;;;;3.40;1.20;;;;;;99323.61;;;;106519;1284;67190;-31
2022/01/31 04:44:15;;;;;;;3.60;1.40;;;;;;99323.17;;;;106481;1284;64771;-30
2022/01/31 04:46:45;;;;;;;3.80;1.30;;;;;;99321.13;;;;106509;1284;64912;-43
2022/01/31 04:49:12;;;;;;;3.40;1.30;;;;;;99322.14;;;;106458;1284;64972;-44
2022/01/31 04:51:40;;;;;;;2.80;1.10;;;;;;99325.56;;;;106506;1284;64802;-30
2022/01/31 04:54:07;;;;;;;3.70;1.40;;;;;;99321.44;;;;106516;1284;66079;-30
2022/01/31 04:56:36;;;;;;;4.30;1.10;;;;;;99323.27;;;;106491;1284;65989;-43
2022/01/31 04:59:06;;;;;;;3.60;1.40;;;;;;99324.89;;;;106491;1284;65009;-42
2022/01/31 05:01:35;;;;;;;4.40;1.50;;;;;;99320.80;;;;106485;1284;64805;-43
2022/01/31 05:04:06;;;;;;;2.90;1.20;;;;;;99322.29;;;;106508;1284;65417;-43
2022/01/31 05:06:37;;;;;;;3.80;1.20;;;;;;99323.80;;;;106472;1284;67517;-43
2022/01/31 05:09:09;;;;;;;4.20;1.80;;;;;;99318.15;;;;106511;1284;64900;-43
2022/01/31 05:11:36;;;;;;;3.80;1.60;;;;;;99322.34;;;;106495;1284;64744;-31
2022/01/31 05:14:07;;;;;;;4.70;1.60;;;;;;99322.66;;;;106245;1284;64865;-30
2022/01/31 05:16:34;;;;;;;3.60;1.10;;;;;;99321.14;;;;106538;1284;64747;-30
2022/01/31 05:19:02;;;;;;;4.00;1.40;;;;;;99320.30;;;;106482;1283;64805;-30
2022/01/31 05:21:30;;;;;;;4.20;1.40;;;;;;99315.67;;;;106488;1284;64756;-43
2022/01/31 05:24:00;;;;;;;4.70;1.40;;;;;;99318.77;;;;106530;1284;65290;-44
2022/01/31 05:26:27;;;;;;;5.30;1.50;;;;;;99314.38;;;;106505;1284;64801;-31
2022/01/31 05:28:54;;;;;;;4.10;1.10;;;;;;99312.94;;;;106511;1284;64778;-31
2022/01/31 05:31:22;;;;;;;4.40;1.40;;;;;;99306.05;;;;106511;1284;66557;-42
2022/01/31 05:33:49;;;;;;;4.70;1.50;;;;;;99309.44;;;;106511;1284;65000;-43
2022/01/31 05:36:17;;;;;;;4.40;1.60;;;;;;99306.17;;;;106512;1284;64778;-39
2022/01/31 05:38:44;;;;;;;5.10;1.80;;;;;;99297.61;;;;106445;1284;64808;-30
2022/01/31 05:41:19;;;;;;;5.10;1.70;;;;;;99299.78;;;;106519;1284;64807;-31
2022/01/31 05:43:49;;;;;;;5.30;1.30;;;;;;99294.73;;;;106495;1284;67659;-31
2022/01/31 05:46:17;;;;;;;5.00;1.60;;;;;;99297.80;;;;106509;1283;64892;-36
2022/01/31 05:48:44;;;;;;;4.80;1.60;;;;;;99300.38;;;;106509;1284;64878;-30
2022/01/31 05:51:20;;;;;;;4.00;1.20;;;;;;99300.64;;;;106485;1284;64796;-30
2022/01/31 05:53:50;;;;;;;4.20;1.40;;;;;;99295.18;;;;106509;1284;64148;-30
2022/01/31 05:56:20;;;;;;;3.80;1.30;;;;;;99289.16;;;;106501;1284;66461;-39
2022/01/31 05:58:49;;;;;;;5.10;1.50;;;;;;99290.79;;;;106481;1284;63111;-43
2022/01/31 06:01:20;;;;;;;4.30;1.20;;;;;;99288.93;;;;106505;1284;64806;-39
2022/01/31 06:03:47;;;;;;;5.30;1.60;;;;;;99288.23;;;;106485;1283;65439;-46
2022/01/31 06:06:17;;;;;;;4.60;1.50;;;;;;99287.69;;;;106543;1283;64750;-39
2022/01/31 06:08:44;;;;;;;3.80;1.60;;;;;;99287.81;;;;106527;1284;66284;-31
2022/01/31 06:11:17;;;;;;;4.90;1.70;;;;;;99288.63;;;;106486;1284;64867;-31
2022/01/31 06:13:47;;;;;;;6.10;1.90;;;;;;99285.92;;;;106511;1284;64914;-44
2022/01/31 06:16:18;;;;;;;5.70;1.60;;;;;;99287.04;;;;106472;1284;64776;-38
2022/01/31 06:18:46;;;;;;;5.20;1.50;;;;;;99290.83;;;;106522;1284;64782;-31
2022/01/31 06:21:16;;;;;;;4.70;1.60;;;;;;99288.91;;;;106511;1284;65929;-31
2022/01/31 06:23:44;;;;;;;4.10;1.70;;;;;;99288.88;;;;106471;1284;64807;-44
2022/01/31 06:26:14;;;;;;;5.40;1.80;;;;;;99292.48;;;;106468;1284;64749;-44
2022/01/31 06:28:42;;;;;;;6.30;2.10;;;;;;99292.58;;;;106507;1283;64907;-44
2022/01/31 06:31:12;;;;;;;5.10;1.80;;;;;;99285.92;;;;106509;1284;64924;-50
2022/01/31 06:33:42;;;;;;;4.60;1.70;;;;;;99288.07;;;;106506;1284;66455;-44
2022/01/31 06:36:13;;;;;;;4.30;1.50;;;;;;99290.20;;;;106491;1284;64919;-42
2022/01/31 06:38:41;;;;;;;4.70;1.60;;;;;;99291.91;;;;106529;1284;64766;-43
2022/01/31 06:41:13;;;;;;;4.90;1.60;;;;;;99292.92;;;;106518;1284;64874;-43
2022/01/31 06:43:40;;;;;;;5.40;1.70;;;;;;99288.84;;;;106524;1284;64910;-43
2022/01/31 06:46:10;;;;;;;4.40;1.50;;;;;;99284.78;;;;106501;1284;64977;-42
2022/01/31 06:48:37;;;;;;;5.30;1.60;;;;;;99282.73;;;;106469;1283;64843;-30
2022/01/31 06:51:08;;;;;;;5.40;1.70;;;;;;99277.22;;;;106493;1284;64761;-30
2022/01/31 06:53:35;;;;;;;4.30;1.60;;;;;;99270.44;;;;106506;1283;65997;-43
2022/01/31 06:56:05;;;;;;;3.90;1.50;;;;;;99269.14;;;;106533;1284;64824;-43
2022/01/31 06:58:33;;;;;;;6.00;1.80;;;;;;99263.37;;;;106515;1284;65319;-30
2022/01/31 07:01:00;;;;;;;5.00;1.90;;;;;;99258.90;;;;106506;1284;64882;-31
2022/01/31 07:03:28;;;;;;;4.90;1.70;;;;;;99259.20;;;;106480;1284;64805;-30
2022/01/31 07:05:55;;;;;;;4.90;1.70;;;;;;99259.28;;;;106493;1284;64773;-30
2022/01/31 07:08:22;;;;;;;4.40;1.40;;;;;;99265.55;;;;106543;1284;64758;-42
2022/01/31 07:10:52;;;;;;;6.00;2.30;;;;;;99270.02;;;;106519;1284;65967;-43
2022/01/31 07:16:04;;;;;;;5.30;1.60;;;;;;99273.05;;;;106518;1284;64899;-43
2022/01/31 07:18:36;;;;;;;5.30;1.70;;;;;;99269.23;;;;106513;1284;64816;-31
2022/01/31 07:21:11;;;;;;;4.00;1.60;;;;;;99265.62;;;;106317;1283;64987;-30
2022/01/31 07:26:18;;;;;;;5.40;1.70;;;;;;99265.39;;;;106531;1284;65054;-41
2022/01/31 07:28:45;;;;;;;4.30;1.70;;;;;;99262.06;;;;106560;1284;64897;-42
2022/01/31 07:31:18;;;;;;;4.30;1.60;;;;;;99261.36;;;;106522;1284;64891;-43
2022/01/31 07:33:46;;;;;;;;;;;;;;99258.99;;;;106576;1282;64761;-43
2022/01/31 07:36:17;;;;;;;5.20;1.30;;;;;;99261.02;;;;106321;1284;66519;-43
2022/01/31 07:38:45;;;;;;;4.50;2.10;;;;;;99255.42;;;;106532;1284;64772;-43
2022/01/31 07:41:15;;;;;;;4.90;1.60;;;;;;99255.29;;;;106505;1284;64761;-42
2022/01/31 07:43:44;;;;;;;5.00;1.70;;;;;;99254.74;;;;106486;1284;64932;-31
2022/01/31 07:46:13;;;;;;;6.10;1.60;;;;;;99255.50;;;;106502;1283;64813;-31
2022/01/31 07:48:41;;;;;;;5.30;1.50;;;;;;99258.63;;;;106533;1284;66136;-31
2022/01/31 07:51:11;;;;;;;5.80;2.20;;;;;;99254.80;;;;106500;1284;64744;-31
2022/01/31 07:53:39;;;;;;;4.90;1.50;;;;;;99248.71;;;;106517;1284;64872;-30
2022/01/31 07:56:11;;;;;;;6.00;2.20;;;;;;99244.70;;;;106501;1284;64753;-31
2022/01/31 07:58:38;;;;;;;4.40;1.60;;;;;;99239.05;;;;106530;1284;64811;-43
2022/01/31 08:01:06;;;;;;;5.40;1.60;;;;;;99236.38;;;;106301;1284;65347;-42
2022/01/31 08:03:34;;;;;;;4.40;1.50;;;;;;99236.45;;;;106492;1284;64859;-31
2022/01/31 08:06:03;;;;;;;5.20;2.00;;;;;;99234.32;;;;106548;1284;64904;-31
2022/01/31 08:08:34;;;;;;;7.00;2.00;;;;;;99230.52;;;;106572;1284;64779;-30
2022/01/31 08:11:05;;;;;;;5.90;2.10;;;;;;99230.85;;;;106540;1284;64801;-31
2022/01/31 08:13:34;;;;;;;5.10;1.80;;;;;;99234.70;;;;106472;1284;64765;-42
2022/01/31 08:16:09;;;;;;;5.30;2.10;;;;;;99237.77;;;;106259;1284;64891;-43
2022/01/31 08:18:39;;;;;;;5.10;1.50;;;;;;99235.96;;;;106540;1284;64865;-42
2022/01/31 08:21:14;;;;;;;5.80;2.10;;;;;;99236.20;;;;106503;1284;64728;-44
2022/01/31 08:23:42;;;;;;;5.50;2.00;;;;;;99233.89;;;;106542;1284;64891;-31
2022/01/31 08:26:15;;;;;;;4.50;1.80;;;;;;99232.52;;;;106517;1281;66221;-29
2022/01/31 08:28:59;;;;;;;5.90;1.70;;;;;;99234.74;;;;106601;1284;64747;-39
2022/01/31 08:31:35;;;;;;;6.20;1.90;;;;;;99233.08;;;;106623;1284;65243;-43
2022/01/31 08:34:18;;;;;;;5.80;1.90;;;;;;99229.48;;;;106610;1284;64855;-39
2022/01/31 08:36:46;;;;;;;5.50;1.80;;;;;;99230.23;;;;106658;1281;64963;-27
2022/01/31 08:39:18;;;;;;;6.50;2.50;;;;;;99223.55;;;;106628;1284;64933;-27
2022/01/31 08:41:49;;;;;;;;;;;;;;99226.92;;;;106551;1284;64805;-31
2022/01/31 08:44:20;;;;;;;5.60;1.90;;;;;;99224.60;;;;106649;1284;64858;-31
2022/01/31 08:46:48;;;;;;;5.00;1.60;;;;;;99218.89;;;;106623;1284;64658;-29
2022/01/31 08:49:16;;;;;;;4.70;1.70;;;;;;99217.70;;;;106636;1284;64901;-29
2022/01/31 08:51:45;;;;;;;5.10;2.00;;;;;;99221.83;;;;106611;1284;66150;-43
2022/01/31 08:54:14;;;;;;;5.70;1.90;;;;;;99219.48;;;;106599;1281;64770;-51
2022/01/31 08:56:47;;;;;;;5.80;1.80;;;;;;99215.23;;;;106621;1284;64736;-43
2022/01/31 08:59:18;;;;;;;5.00;1.80;;;;;;99212.17;;;;106751;1281;64782;-45
2022/01/31 09:01:54;;;;;;;5.70;2.00;;;;;;99210.21;;;;106696;1280;64854;-28
2022/01/31 09:07:09;;;;;;;5.70;2.00;;;;;;99205.89;;;;106709;1281;64863;-39
2022/01/31 09:09:37;;;;;;;5.00;1.80;;;;;;99204.42;;;;106670;1283;64776;-45
2022/01/31 09:12:07;;;;;;;7.30;2.60;;;;;;99204.65;;;;106630;1282;66078;-44
2022/01/31 09:14:35;;;;;;;5.70;2.00;;;;;;99206.61;;;;106630;1283;64757;-41
2022/01/31 09:17:03;;;;;;;5.10;2.20;;;;;;99202.31;;;;106752;1281;65846;-40
2022/01/31 09:19:30;;;;;;;4.80;1.70;;;;;;99208.73;;;;106765;1281;64887;-36
2022/01/31 09:21:59;;;;;;;5.80;1.90;;;;;;99202.41;;;;106691;1281;64827;-42
2022/01/31 09:24:27;;;;;;;5.90;2.10;;;;;;99199.39;;;;106654;1281;64869;-43
2022/01/31 09:26:54;;;;;;;8.30;1.90;;;;;;99197.20;;;;106739;1281;64765;-37
2022/01/31 09:29:21;;;;;;;7.20;2.00;;;;;;99187.20;;;;106631;1284;66482;-37
2022/01/31 09:31:48;;;;;;;5.90;2.00;;;;;;99180.85;;;;106689;1281;64762;-39
2022/01/31 09:34:15;;;;;;;6.00;2.10;;;;;;99182.38;;;;106678;1281;64893;-39
2022/01/31 09:36:43;;;;;;;5.40;1.90;;;;;;99180.86;;;;106625;1281;64770;-28
2022/01/31 09:39:10;;;;;;;5.00;1.90;;;;;;99175.25;;;;106627;1282;64887;-29
2022/01/31 09:41:40;;;;;;;5.30;1.90;;;;;;99173.63;;;;106758;1281;66629;-40
2022/01/31 09:47:07;;;;;;;5.40;1.90;;;;;;99162.80;;;;106486;1284;64774;-39
2022/01/31 09:49:34;;;;;;;5.90;2.30;;;;;;99156.38;;;;106640;1282;64875;-39
2022/01/31 09:52:02;;;;;;;6.00;1.90;;;;;;99152.48;;;;106607;1282;65022;-39
2022/01/31 09:54:29;;;;;;;6.00;1.90;;;;;;99148.31;;;;106727;1281;64954;-38
2022/01/31 09:56:57;;;;;;;4.80;1.90;;;;;;99144.55;;;;106559;1282;64775;-28
2022/01/31 09:59:24;;;;;;;5.80;1.90;;;;;;99143.30;;;;106570;1284;64651;-31
2022/01/31 10:01:55;;;;;;;6.10;2.00;;;;;;99141.83;;;;106682;1281;64972;-30
2022/01/31 10:04:35;;;;;;;4.80;1.70;;;;;;99140.21;;;;106619;1282;64815;-30
2022/01/31 10:07:04;;;;;;;6.60;2.00;;;;;;99141.79;;;;106702;1281;66458;-30
2022/01/31 10:09:33;;;;;;;6.00;1.60;;;;;;99136.50;;;;106838;1281;64771;-29
2022/01/31 10:12:12;;;;;;;5.30;2.00;;;;;;99135.25;;;;106769;1281;64776;-39
2022/01/31 10:17:45;;;;;;;5.70;1.80;;;;;;99141.28;;;;106816;1281;64874;-40
2022/01/31 10:20:18;;;;;;;4.40;1.80;;;;;;99135.02;;;;106724;1282;67677;-40
2022/01/31 10:22:46;;;;;;;4.80;2.00;;;;;;99126.27;;;;106756;1281;64882;-40
2022/01/31 10:25:20;;;;;;;5.30;1.60;;;;;;99132.46;;;;106751;1281;65792;-30
2022/01/31 10:27:51;;;;;;;5.20;2.00;;;;;;99138.80;;;;106656;1281;64779;-47
2022/01/31 10:30:24;;;;;;;5.20;2.10;;;;;;99137.58;;;;106630;1284;64886;-42
2022/01/31 10:32:54;;;;;;;5.30;1.90;;;;;;99129.23;;;;106635;1284;67158;-30
2022/01/31 10:35:25;;;;;;;6.20;1.80;;;;;;99123.80;;;;106620;1284;64987;-30
2022/01/31 10:38:03;;;;;;;5.00;1.80;;;;;;99120.06;;;;106543;1284;64805;-30
2022/01/31 10:44:01;;;;;;;5.00;1.90;;;;;;99111.45;;;;106538;1284;64864;-37
2022/01/31 10:52:28;;;;;;;5.70;2.10;;;;;;99107.59;;;;106493;1283;64842;-40
2022/01/31 10:55:17;;;;;;;6.00;2.50;;;;;;99105.66;;;;106507;1284;64845;-40
2022/01/31 10:58:04;;;;;;;5.40;2.50;;;;;;99107.88;;;;106417;1283;64806;-27
2022/01/31 11:00:40;;;;;;;5.80;2.20;;;;;;99095.96;;;;106486;1284;67355;-28
2022/01/31 11:03:32;;;;;;;6.60;2.10;;;;;;99089.09;;;;106193;1284;64935;-40
2022/01/31 11:06:08;;;;;;;6.40;2.10;;;;;;99094.25;;;;106558;1284;64981;-40
2022/01/31 11:08:41;;;;;;;5.20;2.20;;;;;;99097.17;;;;106310;1283;64832;-39
2022/01/31 11:11:09;;;;;;;5.20;1.80;;;;;;99097.63;;;;106717;1281;64986;-39
2022/01/31 11:13:38;;;;;;;6.70;2.10;;;;;;99093.39;;;;106649;1284;65527;-29
2022/01/31 11:16:09;;;;;;;5.80;2.30;;;;;;99092.99;;;;106403;1282;64887;-38
2022/01/31 11:18:42;;;;;;;5.30;2.00;;;;;;99087.33;;;;106722;1282;64792;-29
2022/01/31 11:21:11;;;;;;;6.20;2.30;;;;;;99091.17;;;;106639;1282;64782;-29
2022/01/31 11:23:49;;;;;;;7.20;2.60;;;;;;99089.16;;;;106607;1281;63810;-39
2022/01/31 11:26:20;;;;;;;5.10;2.20;;;;;;99097.16;;;;106394;1284;66044;-29
2022/01/31 11:28:48;;;;;;;4.70;1.80;;;;;;99097.71;;;;106636;1284;64799;-30
2022/01/31 11:31:18;;;;;;;4.90;2.10;;;;;;99099.77;;;;106553;1284;64856;-34
2022/01/31 11:33:49;;;;;;;5.60;2.00;;;;;;99099.19;;;;106598;1284;64843;-41
2022/01/31 11:36:17;;;;;;;6.90;2.10;;;;;;99097.19;;;;106498;1284;64769;-27
2022/01/31 11:38:45;;;;;;;6.20;2.20;;;;;;99097.77;;;;106527;1284;65933;-28
2022/01/31 11:41:13;;;;;;;6.50;2.40;;;;;;99102.61;;;;106251;1284;64859;-30
2022/01/31 11:43:45;;;;;;;5.30;2.10;;;;;;99100.09;;;;106638;1284;64885;-30
2022/01/31 11:46:13;;;;;;;5.00;1.80;;;;;;99107.17;;;;106638;1284;64909;-30
2022/01/31 11:48:41;;;;;;;5.10;2.30;;;;;;99130.81;;;;106404;1284;64864;-38
2022/01/31 11:51:10;;;;;;;5.50;2.20;;;;;;99116.76;;;;106525;1284;64840;-36
2022/01/31 11:53:39;;;;;;;6.10;2.10;;;;;;99113.20;;;;106618;1284;64883;-35
2022/01/31 11:56:17;;;;;;;6.10;2.30;;;;;;99109.23;;;;106637;1284;64897;-32
2022/01/31 11:58:51;;;;;;;7.00;2.00;;;;;;99099.95;;;;106472;1284;64732;-27
2022/01/31 12:01:21;;;;;;;5.40;2.10;;;;;;99100.23;;;;106515;1284;64863;-39
2022/01/31 12:03:58;;;;;;;5.20;2.10;;;;;;99097.71;;;;106633;1284;64938;-41
2022/01/31 12:06:28;;;;;;;6.30;2.10;;;;;;99099.95;;;;106634;1284;64849;-40
2022/01/31 12:09:12;;;;;;;4.70;2.10;;;;;;99101.63;;;;106497;1284;65587;-41
2022/01/31 12:12:02;;;;;;;3.80;1.70;;;;;;99101.54;;;;106628;1284;64750;-40
2022/01/31 12:14:47;;;;;;;5.50;1.90;;;;;;99101.33;;;;106401;1284;65183;-41
2022/01/31 12:18:21;;;;;;;5.30;2.20;;;;;;99100.66;;;;106540;1283;67669;-28
2022/01/31 12:23:47;;;;;;;6.10;2.20;;;;;;99099.24;;;;106690;1281;64709;-42
2022/01/31 12:26:32;;;;;;;6.00;2.30;;;;;;99100.60;;;;106297;1281;65251;-33
2022/01/31 12:29:12;;;;;;;5.20;1.80;;;;;;99098.86;;;;106729;1281;64887;-45
2022/01/31 12:31:45;;;;;;;6.50;2.60;;;;;;99100.27;;;;106583;1281;67178;-29
2022/01/31 12:34:21;;;;;;;5.50;1.90;;;;;;99091.52;;;;106514;1281;64935;-30
2022/01/31 12:36:52;;;;;;;5.90;2.10;;;;;;99090.83;;;;106682;1281;64647;-30
2022/01/31 12:39:35;;;;;;;7.20;2.30;;;;;;99084.02;;;;106716;1281;64854;-30
2022/01/31 12:42:45;;;;;;;4.80;1.70;;;;;;99088.38;;;;106669;1284;64781;-29
2022/01/31 12:45:39;;;;;;;5.60;2.20;;;;;;99081.06;;;;106689;1281;66362;-29
2022/01/31 12:48:12;;;;;;;6.00;1.80;;;;;;99083.88;;;;106764;1281;64879;-36
2022/01/31 12:50:49;;;;;;;5.50;1.80;;;;;;99083.48;;;;106684;1281;64876;-38
2022/01/31 12:53:27;;;;;;;6.70;2.20;;;;;;99080.86;;;;106639;1281;64897;-40
2022/01/31 12:56:20;;;;;;;5.30;2.10;;;;;;99083.35;;;;106769;1281;64770;-42
2022/01/31 12:59:14;;;;;;;6.50;2.00;;;;;;99090.86;;;;106453;1284;67239;-29
2022/01/31 13:01:46;;;;;;;5.30;2.50;;;;;;99086.72;;;;106673;1281;64740;-40
2022/01/31 13:04:25;;;;;;;5.30;2.00;;;;;;99087.70;;;;106649;1281;64900;-47
2022/01/31 13:06:55;;;;;;;4.70;1.80;;;;;;99093.00;;;;106557;1284;64772;-46
2022/01/31 13:09:35;;;;;;;5.80;2.30;;;;;;99090.15;;;;106741;1281;64880;-44
2022/01/31 13:12:11;;;;;;;5.70;2.10;;;;;;99091.29;;;;106649;1281;68722;-40
2022/01/31 13:14:49;;;;;;;4.10;1.70;;;;;;99098.41;;;;106707;1281;64899;-37
2022/01/31 13:17:26;;;;;;;4.30;2.00;;;;;;99099.11;;;;106686;1281;64884;-27
2022/01/31 13:20:02;;;;;;;5.10;1.80;;;;;;99100.05;;;;106632;1281;64870;-27
2022/01/31 13:22:41;;;;;;;4.30;1.60;;;;;;99103.96;;;;106744;1281;64778;-38
2022/01/31 13:25:14;;;;;;;4.90;1.90;;;;;;99106.89;;;;106694;1281;67305;-38
2022/01/31 13:27:45;;;;;;;5.10;1.90;;;;;;99104.97;;;;106669;1281;64919;-37
2022/01/31 13:30:26;;;;;;;5.20;2.20;;;;;;99101.73;;;;106771;1281;64750;-39
2022/01/31 13:32:55;;;;;;;5.60;2.20;;;;;;99102.16;;;;106658;1281;64878;-30
2022/01/31 13:35:26;;;;;;;5.90;1.90;;;;;;99103.88;;;;106729;1281;64748;-26
2022/01/31 13:38:07;;;;;;;4.60;1.50;;;;;;99105.30;;;;106744;1281;66137;-40
2022/01/31 13:40:37;;;;;;;5.30;1.90;;;;;;99102.38;;;;106684;1284;64802;-39
2022/01/31 13:43:10;;;;;;;5.80;1.90;;;;;;99103.33;;;;106693;1281;64775;-31